Nao Victoria — ECHH — position and weather

sailwx.info

Track history (hours):
 
Tides and Currents Weather Stations Pressure Air Temp Water Temp Dewpoint Dewpoint Depression Visibility Wind Speed Wind Dir Waves Ship Positions

Nao Victoria

Last reported at 2019-May-21 02:22 UTC. Time now 2019-Jun-17 19:46 UTC.
Position N 41°26' E 002°35'.
Warning: this ship's position is 27 days out of date.

Length 25 m; draft 3.2 m.

Type: Sailing vessel. MMSI: 224123770.

Date/timePositionNaut miles runAvg speedWind from/ knotsBaromVisibWave heightAir tempDewpointWater temp
2019-May-21 02:22N 41°26' E 002°35'2 6.3
2019-May-21 02:00N 41°25' E 002°33'3 6.4
2019-May-21 01:30N 41°23' E 002°29'4 6.2
2019-May-21 00:49N 41°20' E 002°25'2 6.2
2019-May-21 00:30N 41°19' E 002°22'3 6.2
2019-May-21 00:00N 41°18' E 002°19'3 6.2
2019-May-20 23:30N 41°16' E 002°15'3 6.0
2019-May-20 23:00N 41°15' E 002°12'3 5.9
2019-May-20 22:30N 41°13' E 002°08'3 6.0
2019-May-20 22:00N 41°12' E 002°05'3 6.0
2019-May-20 21:30N 41°10' E 002°01'3 6.0
2019-May-20 21:00N 41°09' E 001°58'4 6.0
2019-May-20 20:25N 41°07' E 001°54'2 6.1
2019-May-20 20:00N 41°06' E 001°51'3 6.1
2019-May-20 19:30N 41°05' E 001°47'  
2019-May-13 08:26N 38°49' E 001°25'2 5.3
2019-May-13 07:58N 38°51' E 001°26'3 5.3
2019-May-13 07:29N 38°53' E 001°27'1 2.5
2019-May-13 07:00N 38°55' E 001°26'0 0.0
2019-May-13 06:28N 38°55' E 001°26'0 0.0
2019-May-13 05:58N 38°55' E 001°26'  
Track history (hours):
 
Tides and Currents Weather Stations Pressure Air Temp Water Temp Dewpoint Dewpoint Depression Visibility Wind Speed Wind Dir Waves Ship Positions

Nao Victoria

Last reported at 2019-May-21 02:22 UTC. Time now 2019-Jun-17 19:46 UTC.
Position N 41°26' E 002°35'.
Warning: this ship's position is 27 days out of date.

Length 25 m; draft 3.2 m.

Type: Sailing vessel. MMSI: 224123770.

Date/timePositionNaut miles runAvg speedWind from/ knotsBaromVisibWave heightAir tempDewpointWater temp
2019-May-21 02:22N 41°26' E 002°35'2 6.3
2019-May-21 02:00N 41°25' E 002°33'3 6.4
2019-May-21 01:30N 41°23' E 002°29'4 6.2
2019-May-21 00:49N 41°20' E 002°25'2 6.2
2019-May-21 00:30N 41°19' E 002°22'3 6.2
2019-May-21 00:00N 41°18' E 002°19'3 6.2
2019-May-20 23:30N 41°16' E 002°15'3 6.0
2019-May-20 23:00N 41°15' E 002°12'3 5.9
2019-May-20 22:30N 41°13' E 002°08'3 6.0
2019-May-20 22:00N 41°12' E 002°05'3 6.0
2019-May-20 21:30N 41°10' E 002°01'3 6.0
2019-May-20 21:00N 41°09' E 001°58'4 6.0
2019-May-20 20:25N 41°07' E 001°54'2 6.1
2019-May-20 20:00N 41°06' E 001°51'3 6.1
2019-May-20 19:30N 41°05' E 001°47'  
2019-May-13 08:26N 38°49' E 001°25'2 5.3
2019-May-13 07:58N 38°51' E 001°26'3 5.3
2019-May-13 07:29N 38°53' E 001°27'1 2.5
2019-May-13 07:00N 38°55' E 001°26'0 0.0
2019-May-13 06:28N 38°55' E 001°26'0 0.0
2019-May-13 05:58N 38°55' E 001°26'  

Dump ship's entire track history